Huvudsida
METAR-TAF:

METAR-TAF

Flygplatser :

Alta, Norge

Alta flygplats

latitud: 69-59N, longitud: 023-22E, höjd: 0 m

Aktuellt väderrapport

Denna rapport gjordes för 1 timme och 10 minuter sedan, klockan 13:50 UTC
Vind 11 kt från syd/sydost
Temperatur 1°C
Fuktighet 69%
Tryck 1004 hPa
Sikt 10 km eller mer
lätt duggregn

METAR: ENAT 211350Z AUTO 15011KT 9999 -DZ FEW024/// SCT031/// BKN041/// 01/M04 Q1004 RMK WIND 700FT 16019KT

Tid: 17:00 (15:00 UTC)

Väderprognos

Denna rapport gjordes för 7 timmar och 0 minuter sedan, klockan 08:00 UTC
Prognos gäller från 21 kl. 09 UTC till 21 kl. 14 UTC
Vind 8 kt från syd/sydost
Sikt 10 km eller mer
Få moln på en höjd av 2000 ft
Brutna moln på en höjd av 3500 ft
lätt snö

TAF: ENAT 210800Z 2109/2114 16008KT 9999 -SN FEW020 BKN035

Aktuella väderrapporter och prognoser från 4000 flygplatser (METAR- och TAF-rapporter).

De tillgängliga stationerna syns som gula och röda prickar på kartan.

För musen över prickarna för att se namnen på stationerna.

Klicka sedan för att få väderrapporter och prognoser.

För att ändra kartan: Klicka på de gröna knapparna med ett svart kors på för att zooma in; den gröna knappen med ett streck på för att zooma ut; eller på de gröna pilarna för angränsande kartor.


METAR-TAF: